sensor_id;sensor_type;location;lat;lon;timestamp;P1;durP1;ratioP1;P2;durP2;ratioP2
75160;SDS011;63738;50.096;8.716;2022-12-18T00:03:51;10.82;;;0.52;;
75160;SDS011;63738;50.096;8.716;2022-12-18T00:08:43;6.80;;;0.30;;
75160;SDS011;63738;50.096;8.716;2022-12-18T00:11:19;6.07;;;0.10;;
75160;SDS011;63738;50.096;8.716;2022-12-18T00:13:48;6.60;;;0.57;;
75160;SDS011;63738;50.096;8.716;2022-12-18T00:16:15;8.50;;;0.63;;
75160;SDS011;63738;50.096;8.716;2022-12-18T00:18:45;7.47;;;0.45;;
75160;SDS011;63738;50.096;8.716;2022-12-18T00:21:12;12.18;;;0.73;;
75160;SDS011;63738;50.096;8.716;2022-12-18T00:23:38;12.60;;;0.85;;
75160;SDS011;63738;50.096;8.716;2022-12-18T00:26:06;7.53;;;0.52;;
75160;SDS011;63738;50.096;8.716;2022-12-18T00:28:34;4.25;;;0.20;;
75160;SDS011;63738;50.096;8.716;2022-12-18T00:31:04;13.25;;;0.70;;
75160;SDS011;63738;50.096;8.716;2022-12-18T00:33:32;9.15;;;0.68;;
75160;SDS011;63738;50.096;8.716;2022-12-18T00:36:01;10.05;;;0.50;;
75160;SDS011;63738;50.096;8.716;2022-12-18T00:38:31;5.00;;;0.38;;
75160;SDS011;63738;50.096;8.716;2022-12-18T00:40:57;5.38;;;0.35;;
75160;SDS011;63738;50.096;8.716;2022-12-18T00:43:23;7.03;;;0.85;;
75160;SDS011;63738;50.096;8.716;2022-12-18T00:45:49;7.43;;;0.85;;
75160;SDS011;63738;50.096;8.716;2022-12-18T00:48:14;7.50;;;0.60;;
75160;SDS011;63738;50.096;8.716;2022-12-18T00:50:40;6.80;;;0.40;;
75160;SDS011;63738;50.096;8.716;2022-12-18T00:53:06;6.97;;;0.15;;
75160;SDS011;63738;50.096;8.716;2022-12-18T00:55:32;4.32;;;0.38;;
75160;SDS011;63738;50.096;8.716;2022-12-18T00:57:57;6.75;;;0.35;;
75160;SDS011;63738;50.096;8.716;2022-12-18T01:00:23;8.48;;;0.68;;
75160;SDS011;63738;50.096;8.716;2022-12-18T01:02:48;8.05;;;0.40;;
75160;SDS011;63738;50.096;8.716;2022-12-18T01:05:14;4.22;;;0.22;;
75160;SDS011;63738;50.096;8.716;2022-12-18T01:07:40;6.65;;;0.40;;
75160;SDS011;63738;50.096;8.716;2022-12-18T01:10:06;3.35;;;0.22;;
75160;SDS011;63738;50.096;8.716;2022-12-18T01:12:34;5.88;;;0.43;;
75160;SDS011;63738;50.096;8.716;2022-12-18T01:15:00;7.60;;;0.50;;
75160;SDS011;63738;50.096;8.716;2022-12-18T01:17:26;5.28;;;0.30;;
75160;SDS011;63738;50.096;8.716;2022-12-18T01:19:52;4.53;;;0.20;;
75160;SDS011;63738;50.096;8.716;2022-12-18T01:22:17;5.82;;;0.35;;
75160;SDS011;63738;50.096;8.716;2022-12-18T01:24:43;4.78;;;0.30;;
75160;SDS011;63738;50.096;8.716;2022-12-18T01:27:08;4.32;;;0.40;;
75160;SDS011;63738;50.096;8.716;2022-12-18T01:29:34;7.10;;;0.70;;
75160;SDS011;63738;50.096;8.716;2022-12-18T01:32:00;4.85;;;0.50;;
75160;SDS011;63738;50.096;8.716;2022-12-18T01:34:25;4.57;;;0.15;;
75160;SDS011;63738;50.096;8.716;2022-12-18T01:36:51;6.30;;;0.30;;
75160;SDS011;63738;50.096;8.716;2022-12-18T01:39:19;6.00;;;0.40;;
75160;SDS011;63738;50.096;8.716;2022-12-18T01:41:45;5.22;;;0.20;;
75160;SDS011;63738;50.096;8.716;2022-12-18T01:47:25;10.07;;;1.23;;
75160;SDS011;63738;50.096;8.716;2022-12-18T01:49:51;6.18;;;0.45;;
75160;SDS011;63738;50.096;8.716;2022-12-18T01:52:18;6.38;;;0.28;;
75160;SDS011;63738;50.096;8.716;2022-12-18T01:54:45;6.93;;;0.38;;
75160;SDS011;63738;50.096;8.716;2022-12-18T01:57:12;5.90;;;0.45;;
75160;SDS011;63738;50.096;8.716;2022-12-18T01:59:38;8.70;;;0.20;;
75160;SDS011;63738;50.096;8.716;2022-12-18T02:02:06;5.72;;;0.30;;
75160;SDS011;63738;50.096;8.716;2022-12-18T02:04:32;11.07;;;0.93;;
75160;SDS011;63738;50.096;8.716;2022-12-18T02:07:10;5.45;;;0.35;;
75160;SDS011;63738;50.096;8.716;2022-12-18T02:09:54;4.32;;;0.10;;
75160;SDS011;63738;50.096;8.716;2022-12-18T02:12:53;2.55;;;0.00;;
75160;SDS011;63738;50.096;8.716;2022-12-18T02:15:36;3.65;;;0.38;;
75160;SDS011;63738;50.096;8.716;2022-12-18T02:18:20;4.78;;;0.28;;
75160;SDS011;63738;50.096;8.716;2022-12-18T02:20:49;9.50;;;0.40;;
75160;SDS011;63738;50.096;8.716;2022-12-18T02:29:10;7.97;;;0.40;;
75160;SDS011;63738;50.096;8.716;2022-12-18T02:31:40;13.38;;;0.60;;
75160;SDS011;63738;50.096;8.716;2022-12-18T02:34:10;6.07;;;0.55;;
75160;SDS011;63738;50.096;8.716;2022-12-18T02:36:38;5.45;;;0.20;;
75160;SDS011;63738;50.096;8.716;2022-12-18T02:39:07;9.30;;;0.60;;
75160;SDS011;63738;50.096;8.716;2022-12-18T02:41:35;4.47;;;0.17;;
75160;SDS011;63738;50.096;8.716;2022-12-18T02:44:06;2.15;;;0.00;;
75160;SDS011;63738;50.096;8.716;2022-12-18T02:46:39;3.08;;;0.20;;
75160;SDS011;63738;50.096;8.716;2022-12-18T02:55:19;3.92;;;0.45;;
75160;SDS011;63738;50.096;8.716;2022-12-18T02:58:14;7.00;;;0.55;;
75160;SDS011;63738;50.096;8.716;2022-12-18T03:00:46;4.78;;;0.30;;
75160;SDS011;63738;50.096;8.716;2022-12-18T03:03:27;7.32;;;0.45;;
75160;SDS011;63738;50.096;8.716;2022-12-18T03:06:05;7.53;;;0.45;;
75160;SDS011;63738;50.096;8.716;2022-12-18T03:08:39;2.45;;;0.20;;
75160;SDS011;63738;50.096;8.716;2022-12-18T03:11:09;7.40;;;0.32;;
75160;SDS011;63738;50.096;8.716;2022-12-18T03:16:05;6.78;;;0.55;;
75160;SDS011;63738;50.096;8.716;2022-12-18T03:18:38;5.63;;;0.73;;
75160;SDS011;63738;50.096;8.716;2022-12-18T03:21:10;8.23;;;0.22;;
75160;SDS011;63738;50.096;8.716;2022-12-18T03:23:43;6.15;;;0.52;;
75160;SDS011;63738;50.096;8.716;2022-12-18T03:26:14;4.18;;;0.45;;
75160;SDS011;63738;50.096;8.716;2022-12-18T03:28:50;7.10;;;0.40;;
75160;SDS011;63738;50.096;8.716;2022-12-18T03:31:19;4.95;;;0.63;;
75160;SDS011;63738;50.096;8.716;2022-12-18T03:33:57;5.60;;;0.20;;
75160;SDS011;63738;50.096;8.716;2022-12-18T03:36:26;5.32;;;0.40;;
75160;SDS011;63738;50.096;8.716;2022-12-18T03:38:54;3.47;;;0.10;;
75160;SDS011;63738;50.096;8.716;2022-12-18T03:49:39;7.47;;;0.10;;
75160;SDS011;63738;50.096;8.716;2022-12-18T03:52:49;6.15;;;0.52;;
75160;SDS011;63738;50.096;8.716;2022-12-18T03:55:17;10.55;;;0.57;;
75160;SDS011;63738;50.096;8.716;2022-12-18T03:57:45;4.55;;;0.45;;
75160;SDS011;63738;50.096;8.716;2022-12-18T04:00:14;4.10;;;0.52;;
75160;SDS011;63738;50.096;8.716;2022-12-18T04:02:47;5.22;;;0.73;;
75160;SDS011;63738;50.096;8.716;2022-12-18T04:05:18;6.10;;;0.30;;
75160;SDS011;63738;50.096;8.716;2022-12-18T04:07:46;3.03;;;0.20;;
75160;SDS011;63738;50.096;8.716;2022-12-18T04:10:13;7.45;;;0.57;;
75160;SDS011;63738;50.096;8.716;2022-12-18T04:12:40;4.85;;;0.38;;
75160;SDS011;63738;50.096;8.716;2022-12-18T04:15:06;5.85;;;0.47;;
75160;SDS011;63738;50.096;8.716;2022-12-18T04:17:33;4.10;;;0.38;;
75160;SDS011;63738;50.096;8.716;2022-12-18T04:19:58;4.53;;;0.60;;
75160;SDS011;63738;50.096;8.716;2022-12-18T04:22:24;2.72;;;0.10;;
75160;SDS011;63738;50.096;8.716;2022-12-18T04:24:49;5.70;;;0.60;;
75160;SDS011;63738;50.096;8.716;2022-12-18T04:27:15;6.90;;;0.40;;
75160;SDS011;63738;50.096;8.716;2022-12-18T04:29:41;2.83;;;0.30;;
75160;SDS011;63738;50.096;8.716;2022-12-18T04:32:06;5.45;;;0.52;;
75160;SDS011;63738;50.096;8.716;2022-12-18T04:34:32;4.93;;;0.13;;
75160;SDS011;63738;50.096;8.716;2022-12-18T04:36:58;5.25;;;0.08;;
75160;SDS011;63738;50.096;8.716;2022-12-18T04:39:24;5.38;;;0.38;;
75160;SDS011;63738;50.096;8.716;2022-12-18T04:41:49;3.67;;;0.17;;
75160;SDS011;63738;50.096;8.716;2022-12-18T04:44:15;6.55;;;0.32;;
75160;SDS011;63738;50.096;8.716;2022-12-18T04:46:41;7.05;;;0.40;;
75160;SDS011;63738;50.096;8.716;2022-12-18T04:49:06;6.75;;;0.45;;
75160;SDS011;63738;50.096;8.716;2022-12-18T04:51:32;6.97;;;0.52;;
75160;SDS011;63738;50.096;8.716;2022-12-18T04:53:57;4.25;;;0.22;;
75160;SDS011;63738;50.096;8.716;2022-12-18T04:56:23;4.15;;;0.15;;
75160;SDS011;63738;50.096;8.716;2022-12-18T04:58:49;12.68;;;0.75;;
75160;SDS011;63738;50.096;8.716;2022-12-18T05:01:15;5.35;;;0.52;;
75160;SDS011;63738;50.096;8.716;2022-12-18T05:03:42;11.82;;;0.80;;
75160;SDS011;63738;50.096;8.716;2022-12-18T05:06:07;2.72;;;0.10;;
75160;SDS011;63738;50.096;8.716;2022-12-18T05:08:33;4.80;;;0.20;;
75160;SDS011;63738;50.096;8.716;2022-12-18T05:11:00;4.75;;;0.52;;
75160;SDS011;63738;50.096;8.716;2022-12-18T05:13:28;5.95;;;0.38;;
75160;SDS011;63738;50.096;8.716;2022-12-18T05:15:54;4.32;;;0.40;;
75160;SDS011;63738;50.096;8.716;2022-12-18T05:18:20;5.40;;;0.13;;
75160;SDS011;63738;50.096;8.716;2022-12-18T05:20:45;5.68;;;0.40;;
75160;SDS011;63738;50.096;8.716;2022-12-18T05:23:11;7.78;;;0.17;;
75160;SDS011;63738;50.096;8.716;2022-12-18T05:25:37;5.05;;;0.35;;
75160;SDS011;63738;50.096;8.716;2022-12-18T05:28:02;5.15;;;0.35;;
75160;SDS011;63738;50.096;8.716;2022-12-18T05:30:28;3.90;;;0.22;;
75160;SDS011;63738;50.096;8.716;2022-12-18T05:32:54;4.93;;;0.22;;
75160;SDS011;63738;50.096;8.716;2022-12-18T05:35:19;3.70;;;0.40;;
75160;SDS011;63738;50.096;8.716;2022-12-18T05:37:45;4.07;;;0.28;;
75160;SDS011;63738;50.096;8.716;2022-12-18T05:40:11;5.38;;;0.20;;
75160;SDS011;63738;50.096;8.716;2022-12-18T05:42:37;4.85;;;0.38;;
75160;SDS011;63738;50.096;8.716;2022-12-18T05:45:03;3.33;;;0.10;;
75160;SDS011;63738;50.096;8.716;2022-12-18T05:47:29;5.07;;;0.25;;
75160;SDS011;63738;50.096;8.716;2022-12-18T05:49:55;5.00;;;0.52;;
75160;SDS011;63738;50.096;8.716;2022-12-18T05:52:21;4.60;;;0.20;;
75160;SDS011;63738;50.096;8.716;2022-12-18T05:54:46;7.40;;;0.40;;
75160;SDS011;63738;50.096;8.716;2022-12-18T05:57:12;4.22;;;0.20;;
75160;SDS011;63738;50.096;8.716;2022-12-18T05:59:38;2.28;;;0.10;;
75160;SDS011;63738;50.096;8.716;2022-12-18T06:02:03;4.13;;;0.40;;
75160;SDS011;63738;50.096;8.716;2022-12-18T06:04:29;5.95;;;0.20;;
75160;SDS011;63738;50.096;8.716;2022-12-18T06:06:55;4.60;;;0.30;;
75160;SDS011;63738;50.096;8.716;2022-12-18T06:09:20;2.20;;;0.05;;
75160;SDS011;63738;50.096;8.716;2022-12-18T06:11:46;4.68;;;0.43;;
75160;SDS011;63738;50.096;8.716;2022-12-18T06:14:12;3.35;;;0.50;;
75160;SDS011;63738;50.096;8.716;2022-12-18T06:16:37;5.80;;;0.10;;
75160;SDS011;63738;50.096;8.716;2022-12-18T06:19:04;3.45;;;0.30;;
75160;SDS011;63738;50.096;8.716;2022-12-18T06:23:56;5.15;;;0.32;;
75160;SDS011;63738;50.096;8.716;2022-12-18T06:26:22;4.40;;;0.20;;
75160;SDS011;63738;50.096;8.716;2022-12-18T06:28:48;4.05;;;0.47;;
75160;SDS011;63738;50.096;8.716;2022-12-18T06:31:14;2.75;;;0.10;;
75160;SDS011;63738;50.096;8.716;2022-12-18T06:33:40;3.53;;;0.38;;
75160;SDS011;63738;50.096;8.716;2022-12-18T06:38:37;4.03;;;0.30;;
75160;SDS011;63738;50.096;8.716;2022-12-18T06:41:14;5.18;;;0.63;;
75160;SDS011;63738;50.096;8.716;2022-12-18T06:43:41;2.55;;;0.32;;
75160;SDS011;63738;50.096;8.716;2022-12-18T06:46:07;4.65;;;0.32;;
75160;SDS011;63738;50.096;8.716;2022-12-18T06:48:33;2.13;;;0.20;;
75160;SDS011;63738;50.096;8.716;2022-12-18T06:50:59;5.05;;;0.10;;
75160;SDS011;63738;50.096;8.716;2022-12-18T06:53:25;1.23;;;0.20;;
75160;SDS011;63738;50.096;8.716;2022-12-18T06:55:51;4.00;;;0.38;;
75160;SDS011;63738;50.096;8.716;2022-12-18T06:58:16;2.63;;;0.25;;
75160;SDS011;63738;50.096;8.716;2022-12-18T07:00:42;1.50;;;0.00;;
75160;SDS011;63738;50.096;8.716;2022-12-18T07:03:08;11.38;;;0.30;;
75160;SDS011;63738;50.096;8.716;2022-12-18T07:05:34;4.10;;;0.50;;
75160;SDS011;63738;50.096;8.716;2022-12-18T07:08:04;4.82;;;0.08;;
75160;SDS011;63738;50.096;8.716;2022-12-18T07:10:30;9.82;;;0.45;;
75160;SDS011;63738;50.096;8.716;2022-12-18T07:12:55;4.93;;;0.05;;
75160;SDS011;63738;50.096;8.716;2022-12-18T07:15:21;10.95;;;0.50;;
75160;SDS011;63738;50.096;8.716;2022-12-18T07:17:47;0.68;;;0.00;;
75160;SDS011;63738;50.096;8.716;2022-12-18T07:20:12;6.88;;;0.47;;
75160;SDS011;63738;50.096;8.716;2022-12-18T07:22:38;2.35;;;0.05;;
75160;SDS011;63738;50.096;8.716;2022-12-18T07:25:03;1.83;;;0.00;;
75160;SDS011;63738;50.096;8.716;2022-12-18T07:27:30;7.38;;;0.40;;
75160;SDS011;63738;50.096;8.716;2022-12-18T07:29:55;3.42;;;0.15;;
75160;SDS011;63738;50.096;8.716;2022-12-18T07:32:21;1.63;;;0.10;;
75160;SDS011;63738;50.096;8.716;2022-12-18T07:34:46;5.25;;;0.28;;
75160;SDS011;63738;50.096;8.716;2022-12-18T07:37:12;7.72;;;0.30;;
75160;SDS011;63738;50.096;8.716;2022-12-18T07:39:37;4.20;;;0.10;;
75160;SDS011;63738;50.096;8.716;2022-12-18T07:42:03;6.28;;;0.43;;
75160;SDS011;63738;50.096;8.716;2022-12-18T07:44:47;4.85;;;0.20;;
75160;SDS011;63738;50.096;8.716;2022-12-18T07:47:13;8.90;;;0.73;;
75160;SDS011;63738;50.096;8.716;2022-12-18T07:49:38;4.05;;;0.08;;
75160;SDS011;63738;50.096;8.716;2022-12-18T07:52:04;2.92;;;0.00;;
75160;SDS011;63738;50.096;8.716;2022-12-18T07:54:29;7.15;;;0.22;;
75160;SDS011;63738;50.096;8.716;2022-12-18T07:56:55;3.40;;;0.32;;
75160;SDS011;63738;50.096;8.716;2022-12-18T07:59:21;2.60;;;0.13;;
75160;SDS011;63738;50.096;8.716;2022-12-18T08:01:46;3.63;;;0.22;;
75160;SDS011;63738;50.096;8.716;2022-12-18T08:04:12;6.22;;;0.47;;
75160;SDS011;63738;50.096;8.716;2022-12-18T08:06:37;1.73;;;0.10;;
75160;SDS011;63738;50.096;8.716;2022-12-18T08:09:03;6.20;;;0.47;;
75160;SDS011;63738;50.096;8.716;2022-12-18T08:11:29;9.80;;;1.02;;
75160;SDS011;63738;50.096;8.716;2022-12-18T08:13:54;6.47;;;0.38;;
75160;SDS011;63738;50.096;8.716;2022-12-18T08:16:21;6.45;;;0.50;;
75160;SDS011;63738;50.096;8.716;2022-12-18T08:18:47;5.05;;;0.25;;
75160;SDS011;63738;50.096;8.716;2022-12-18T08:21:14;6.75;;;0.40;;
75160;SDS011;63738;50.096;8.716;2022-12-18T08:23:46;3.60;;;0.10;;
75160;SDS011;63738;50.096;8.716;2022-12-18T08:26:12;2.40;;;0.20;;
75160;SDS011;63738;50.096;8.716;2022-12-18T08:28:38;2.90;;;0.15;;
75160;SDS011;63738;50.096;8.716;2022-12-18T08:31:04;7.10;;;0.35;;
75160;SDS011;63738;50.096;8.716;2022-12-18T08:33:30;5.03;;;0.10;;
75160;SDS011;63738;50.096;8.716;2022-12-18T08:35:57;9.38;;;0.65;;
75160;SDS011;63738;50.096;8.716;2022-12-18T08:38:23;2.63;;;0.13;;
75160;SDS011;63738;50.096;8.716;2022-12-18T08:40:49;4.40;;;0.60;;
75160;SDS011;63738;50.096;8.716;2022-12-18T08:43:19;7.88;;;0.50;;
75160;SDS011;63738;50.096;8.716;2022-12-18T08:46:03;4.80;;;0.43;;
75160;SDS011;63738;50.096;8.716;2022-12-18T08:48:29;3.80;;;0.10;;
75160;SDS011;63738;50.096;8.716;2022-12-18T08:50:55;10.07;;;0.70;;
75160;SDS011;63738;50.096;8.716;2022-12-18T08:53:22;7.95;;;0.63;;
75160;SDS011;63738;50.096;8.716;2022-12-18T08:55:51;5.70;;;0.20;;
75160;SDS011;63738;50.096;8.716;2022-12-18T08:58:17;7.72;;;0.35;;
75160;SDS011;63738;50.096;8.716;2022-12-18T09:00:43;10.13;;;0.73;;
75160;SDS011;63738;50.096;8.716;2022-12-18T09:03:12;6.03;;;0.30;;
75160;SDS011;63738;50.096;8.716;2022-12-18T09:05:42;7.68;;;0.70;;
75160;SDS011;63738;50.096;8.716;2022-12-18T09:08:08;6.00;;;0.63;;
75160;SDS011;63738;50.096;8.716;2022-12-18T09:10:40;10.27;;;0.70;;
75160;SDS011;63738;50.096;8.716;2022-12-18T09:13:12;10.20;;;0.90;;
75160;SDS011;63738;50.096;8.716;2022-12-18T09:15:47;5.68;;;0.47;;
75160;SDS011;63738;50.096;8.716;2022-12-18T09:18:14;10.00;;;0.88;;
75160;SDS011;63738;50.096;8.716;2022-12-18T09:20:42;9.02;;;0.70;;
75160;SDS011;63738;50.096;8.716;2022-12-18T09:23:08;11.63;;;0.70;;
75160;SDS011;63738;50.096;8.716;2022-12-18T09:25:34;13.13;;;1.40;;
75160;SDS011;63738;50.096;8.716;2022-12-18T09:28:05;8.20;;;0.60;;
75160;SDS011;63738;50.096;8.716;2022-12-18T09:33:06;5.45;;;0.50;;
75160;SDS011;63738;50.096;8.716;2022-12-18T09:35:32;13.27;;;1.45;;
75160;SDS011;63738;50.096;8.716;2022-12-18T09:37:57;10.02;;;0.93;;
75160;SDS011;63738;50.096;8.716;2022-12-18T09:40:25;15.93;;;1.73;;
75160;SDS011;63738;50.096;8.716;2022-12-18T09:43:02;8.45;;;1.27;;
75160;SDS011;63738;50.096;8.716;2022-12-18T09:45:46;9.98;;;0.95;;
75160;SDS011;63738;50.096;8.716;2022-12-18T09:48:19;8.00;;;0.75;;
75160;SDS011;63738;50.096;8.716;2022-12-18T09:50:58;12.65;;;1.50;;
75160;SDS011;63738;50.096;8.716;2022-12-18T09:53:28;15.15;;;2.22;;
75160;SDS011;63738;50.096;8.716;2022-12-18T09:55:57;14.88;;;1.95;;
75160;SDS011;63738;50.096;8.716;2022-12-18T10:00:59;13.63;;;2.20;;
75160;SDS011;63738;50.096;8.716;2022-12-18T10:03:25;9.35;;;1.20;;
75160;SDS011;63738;50.096;8.716;2022-12-18T10:05:58;10.75;;;1.67;;
75160;SDS011;63738;50.096;8.716;2022-12-18T10:08:34;10.43;;;1.13;;
75160;SDS011;63738;50.096;8.716;2022-12-18T10:14:04;15.02;;;1.88;;
75160;SDS011;63738;50.096;8.716;2022-12-18T10:16:36;11.35;;;2.08;;
75160;SDS011;63738;50.096;8.716;2022-12-18T10:22:30;15.82;;;1.98;;
75160;SDS011;63738;50.096;8.716;2022-12-18T10:27:48;13.82;;;1.92;;
75160;SDS011;63738;50.096;8.716;2022-12-18T10:30:22;10.48;;;1.35;;
75160;SDS011;63738;50.096;8.716;2022-12-18T10:32:49;13.23;;;1.73;;
75160;SDS011;63738;50.096;8.716;2022-12-18T10:35:24;11.50;;;1.67;;
75160;SDS011;63738;50.096;8.716;2022-12-18T10:40:51;14.25;;;1.52;;
75160;SDS011;63738;50.096;8.716;2022-12-18T10:43:33;10.23;;;0.95;;
75160;SDS011;63738;50.096;8.716;2022-12-18T10:48:36;15.00;;;1.38;;
75160;SDS011;63738;50.096;8.716;2022-12-18T10:51:02;5.35;;;0.38;;
75160;SDS011;63738;50.096;8.716;2022-12-18T10:55:56;12.20;;;1.33;;
75160;SDS011;63738;50.096;8.716;2022-12-18T10:58:28;7.55;;;0.65;;
75160;SDS011;63738;50.096;8.716;2022-12-18T11:01:04;7.05;;;0.60;;
75160;SDS011;63738;50.096;8.716;2022-12-18T11:03:35;10.10;;;0.93;;
75160;SDS011;63738;50.096;8.716;2022-12-18T11:06:13;6.43;;;0.45;;
75160;SDS011;63738;50.096;8.716;2022-12-18T11:08:44;11.20;;;1.10;;
75160;SDS011;63738;50.096;8.716;2022-12-18T11:11:23;7.25;;;0.95;;
75160;SDS011;63738;50.096;8.716;2022-12-18T11:13:52;12.52;;;1.60;;
75160;SDS011;63738;50.096;8.716;2022-12-18T11:16:22;6.22;;;0.75;;
75160;SDS011;63738;50.096;8.716;2022-12-18T11:18:48;12.45;;;1.30;;
75160;SDS011;63738;50.096;8.716;2022-12-18T11:21:14;17.10;;;1.67;;
75160;SDS011;63738;50.096;8.716;2022-12-18T11:23:47;7.00;;;0.73;;
75160;SDS011;63738;50.096;8.716;2022-12-18T11:26:18;12.57;;;0.95;;
75160;SDS011;63738;50.096;8.716;2022-12-18T11:31:32;11.73;;;1.27;;
75160;SDS011;63738;50.096;8.716;2022-12-18T11:34:20;9.77;;;0.70;;
75160;SDS011;63738;50.096;8.716;2022-12-18T11:36:52;11.35;;;1.13;;
75160;SDS011;63738;50.096;8.716;2022-12-18T11:39:21;18.17;;;2.22;;
75160;SDS011;63738;50.096;8.716;2022-12-18T11:42:00;10.25;;;1.15;;
75160;SDS011;63738;50.096;8.716;2022-12-18T11:50:15;13.45;;;1.60;;
75160;SDS011;63738;50.096;8.716;2022-12-18T11:52:54;10.45;;;1.25;;
75160;SDS011;63738;50.096;8.716;2022-12-18T11:55:27;14.73;;;1.23;;
75160;SDS011;63738;50.096;8.716;2022-12-18T12:04:02;15.75;;;1.85;;
75160;SDS011;63738;50.096;8.716;2022-12-18T12:13:00;11.85;;;0.70;;
75160;SDS011;63738;50.096;8.716;2022-12-18T12:15:40;12.75;;;1.35;;
75160;SDS011;63738;50.096;8.716;2022-12-18T12:23:15;9.25;;;0.82;;
75160;SDS011;63738;50.096;8.716;2022-12-18T12:26:10;6.72;;;0.55;;
75160;SDS011;63738;50.096;8.716;2022-12-18T12:28:47;11.60;;;0.85;;
75160;SDS011;63738;50.096;8.716;2022-12-18T12:31:30;10.35;;;0.88;;
75160;SDS011;63738;50.096;8.716;2022-12-18T12:36:45;18.42;;;1.85;;
75160;SDS011;63738;50.096;8.716;2022-12-18T12:39:34;12.48;;;1.27;;
75160;SDS011;63738;50.096;8.716;2022-12-18T12:42:05;12.40;;;1.58;;
75160;SDS011;63738;50.096;8.716;2022-12-18T12:44:59;7.65;;;0.93;;
75160;SDS011;63738;50.096;8.716;2022-12-18T12:47:30;11.00;;;1.13;;
75160;SDS011;63738;50.096;8.716;2022-12-18T12:50:02;11.98;;;0.77;;
75160;SDS011;63738;50.096;8.716;2022-12-18T12:54:57;10.15;;;0.60;;
75160;SDS011;63738;50.096;8.716;2022-12-18T13:02:21;13.55;;;1.02;;
75160;SDS011;63738;50.096;8.716;2022-12-18T13:07:28;9.93;;;1.08;;
75160;SDS011;63738;50.096;8.716;2022-12-18T13:12:57;12.43;;;0.90;;
75160;SDS011;63738;50.096;8.716;2022-12-18T13:18:04;9.50;;;0.60;;
75160;SDS011;63738;50.096;8.716;2022-12-18T13:25:50;10.63;;;0.95;;
75160;SDS011;63738;50.096;8.716;2022-12-18T13:28:17;13.15;;;0.98;;
75160;SDS011;63738;50.096;8.716;2022-12-18T13:31:02;12.45;;;1.35;;
75160;SDS011;63738;50.096;8.716;2022-12-18T13:36:02;5.93;;;0.80;;
75160;SDS011;63738;50.096;8.716;2022-12-18T13:38:46;16.33;;;2.00;;
75160;SDS011;63738;50.096;8.716;2022-12-18T13:43:44;15.55;;;1.38;;
75160;SDS011;63738;50.096;8.716;2022-12-18T13:48:56;9.43;;;1.08;;
75160;SDS011;63738;50.096;8.716;2022-12-18T13:51:47;4.60;;;0.55;;
75160;SDS011;63738;50.096;8.716;2022-12-18T13:54:25;13.48;;;1.00;;
75160;SDS011;63738;50.096;8.716;2022-12-18T13:59:46;7.57;;;0.93;;
75160;SDS011;63738;50.096;8.716;2022-12-18T14:02:27;6.88;;;0.68;;
75160;SDS011;63738;50.096;8.716;2022-12-18T14:04:53;8.07;;;0.60;;
75160;SDS011;63738;50.096;8.716;2022-12-18T14:07:21;11.30;;;0.68;;
75160;SDS011;63738;50.096;8.716;2022-12-18T14:09:50;4.47;;;0.40;;
75160;SDS011;63738;50.096;8.716;2022-12-18T14:12:20;13.13;;;0.63;;
75160;SDS011;63738;50.096;8.716;2022-12-18T14:15:22;22.48;;;2.30;;
75160;SDS011;63738;50.096;8.716;2022-12-18T14:17:53;15.88;;;2.13;;
75160;SDS011;63738;50.096;8.716;2022-12-18T14:20:24;11.27;;;1.27;;
75160;SDS011;63738;50.096;8.716;2022-12-18T14:22:54;6.10;;;0.40;;
75160;SDS011;63738;50.096;8.716;2022-12-18T14:25:22;6.03;;;0.20;;
75160;SDS011;63738;50.096;8.716;2022-12-18T14:27:50;12.15;;;0.98;;
75160;SDS011;63738;50.096;8.716;2022-12-18T14:30:29;9.10;;;0.65;;
75160;SDS011;63738;50.096;8.716;2022-12-18T14:33:30;9.63;;;0.88;;
75160;SDS011;63738;50.096;8.716;2022-12-18T14:35:57;13.85;;;1.00;;
75160;SDS011;63738;50.096;8.716;2022-12-18T14:41:02;10.13;;;1.05;;
75160;SDS011;63738;50.096;8.716;2022-12-18T14:43:33;12.35;;;0.95;;
75160;SDS011;63738;50.096;8.716;2022-12-18T14:46:01;7.47;;;0.60;;
75160;SDS011;63738;50.096;8.716;2022-12-18T14:48:41;15.23;;;1.27;;
75160;SDS011;63738;50.096;8.716;2022-12-18T14:53:48;10.15;;;0.77;;
75160;SDS011;63738;50.096;8.716;2022-12-18T14:56:22;9.88;;;0.45;;
75160;SDS011;63738;50.096;8.716;2022-12-18T14:58:59;8.52;;;0.63;;
75160;SDS011;63738;50.096;8.716;2022-12-18T15:01:34;8.70;;;0.57;;
75160;SDS011;63738;50.096;8.716;2022-12-18T15:04:03;8.98;;;0.55;;
75160;SDS011;63738;50.096;8.716;2022-12-18T15:06:44;9.75;;;1.00;;
75160;SDS011;63738;50.096;8.716;2022-12-18T15:09:24;14.80;;;1.17;;
75160;SDS011;63738;50.096;8.716;2022-12-18T15:11:55;9.40;;;0.75;;
75160;SDS011;63738;50.096;8.716;2022-12-18T15:14:38;7.43;;;0.43;;
75160;SDS011;63738;50.096;8.716;2022-12-18T15:17:18;10.23;;;0.85;;
75160;SDS011;63738;50.096;8.716;2022-12-18T15:19:47;14.25;;;0.85;;
75160;SDS011;63738;50.096;8.716;2022-12-18T15:24:48;12.48;;;1.15;;
75160;SDS011;63738;50.096;8.716;2022-12-18T15:27:21;12.60;;;1.30;;
75160;SDS011;63738;50.096;8.716;2022-12-18T15:32:34;15.70;;;1.40;;
75160;SDS011;63738;50.096;8.716;2022-12-18T15:35:22;12.88;;;0.95;;
75160;SDS011;63738;50.096;8.716;2022-12-18T15:37:48;14.02;;;1.27;;
75160;SDS011;63738;50.096;8.716;2022-12-18T15:40:16;14.02;;;1.13;;
75160;SDS011;63738;50.096;8.716;2022-12-18T15:42:46;14.30;;;1.20;;
75160;SDS011;63738;50.096;8.716;2022-12-18T15:45:31;15.75;;;1.60;;
75160;SDS011;63738;50.096;8.716;2022-12-18T15:47:57;10.05;;;0.80;;
75160;SDS011;63738;50.096;8.716;2022-12-18T15:50:23;16.40;;;1.83;;
75160;SDS011;63738;50.096;8.716;2022-12-18T15:52:49;12.77;;;1.13;;
75160;SDS011;63738;50.096;8.716;2022-12-18T15:55:18;14.43;;;1.58;;
75160;SDS011;63738;50.096;8.716;2022-12-18T15:58:05;14.77;;;1.73;;
75160;SDS011;63738;50.096;8.716;2022-12-18T16:00:31;14.65;;;1.40;;
75160;SDS011;63738;50.096;8.716;2022-12-18T16:05:23;9.43;;;0.80;;
75160;SDS011;63738;50.096;8.716;2022-12-18T16:07:50;20.58;;;2.55;;
75160;SDS011;63738;50.096;8.716;2022-12-18T16:10:16;8.15;;;0.75;;
75160;SDS011;63738;50.096;8.716;2022-12-18T16:12:42;10.05;;;0.65;;
75160;SDS011;63738;50.096;8.716;2022-12-18T16:15:09;9.70;;;0.82;;
75160;SDS011;63738;50.096;8.716;2022-12-18T16:17:38;9.75;;;0.88;;
75160;SDS011;63738;50.096;8.716;2022-12-18T16:20:04;13.07;;;1.23;;
75160;SDS011;63738;50.096;8.716;2022-12-18T16:24:56;21.20;;;2.28;;
75160;SDS011;63738;50.096;8.716;2022-12-18T16:27:23;12.13;;;1.08;;
75160;SDS011;63738;50.096;8.716;2022-12-18T16:32:17;10.63;;;0.52;;
75160;SDS011;63738;50.096;8.716;2022-12-18T16:34:44;15.60;;;1.40;;
75160;SDS011;63738;50.096;8.716;2022-12-18T16:37:11;7.45;;;0.30;;
75160;SDS011;63738;50.096;8.716;2022-12-18T16:39:38;14.02;;;1.50;;
75160;SDS011;63738;50.096;8.716;2022-12-18T16:42:12;14.90;;;1.73;;
75160;SDS011;63738;50.096;8.716;2022-12-18T16:44:41;11.07;;;1.52;;
75160;SDS011;63738;50.096;8.716;2022-12-18T16:47:07;14.15;;;0.98;;
75160;SDS011;63738;50.096;8.716;2022-12-18T16:49:33;10.38;;;0.85;;
75160;SDS011;63738;50.096;8.716;2022-12-18T16:51:59;13.05;;;1.23;;
75160;SDS011;63738;50.096;8.716;2022-12-18T16:56:54;10.60;;;0.98;;
75160;SDS011;63738;50.096;8.716;2022-12-18T16:59:20;7.88;;;1.10;;
75160;SDS011;63738;50.096;8.716;2022-12-18T17:01:46;20.05;;;2.33;;
75160;SDS011;63738;50.096;8.716;2022-12-18T17:04:12;12.55;;;1.25;;
75160;SDS011;63738;50.096;8.716;2022-12-18T17:06:39;12.80;;;1.02;;
75160;SDS011;63738;50.096;8.716;2022-12-18T17:09:07;10.23;;;1.17;;
75160;SDS011;63738;50.096;8.716;2022-12-18T17:11:36;13.52;;;1.40;;
75160;SDS011;63738;50.096;8.716;2022-12-18T17:14:05;10.73;;;0.77;;
75160;SDS011;63738;50.096;8.716;2022-12-18T17:16:32;13.02;;;1.30;;